Roaring Spring, Pennsylvania
Current Conditions -  °F | °C
As of 3:21 AM on Thursday 27 Nov 2014 (Local Time) from KAOO Reporting Station
Haze Haze  
Wind Chill: 23°   Ceiling: 5000
Heat Index: 30°   Visibility: 5mi
Dew Point: 29°   Wind: 7mph
Humidity: 96%   Direction: 40°NE
Pressure: 29.95"   Gusts: NA
Location:  40.34°N, 78.39°W
Report Text: KAOO 270821Z AUTO 04006KT 5SM BR SCT011 SCT042 OVC050 M01/M02 A2995 RMK AO2 T10111017
Loading
Personal Weather Stations






























Interactive Weather Map New forecast layout! Learn more

10-Day Weather Forecast

Advertisements
Track Severe Weather on mobile